x

Sombrero Key, Fl (smkf1) Weather Station

8:00pm - Sun 24th May 2015 All times are CDT. -4 hours from GMT.

  • Wind
    20mph, 21mph gusts
  • Air Temp 82°f
  • Sea Pressure 1019.2mb
  • Sombrero Key, Fl
  • Sombrero Key, Fl

More Historic Weather Station data

Upgrade to MSW Pro to gain access to the past 30 days of data for over 8000 Wavebouys and Weather Stations around the globe.

Join Pro

Comparision Forecast

View Surf forecast
   
Sun 05/24 8:00pm 20 21 mph 1019.2mb 82f
7:00pm 21 22 mph 1018.8mb 82f
6:00pm 21 22 mph 1018.8mb 83f
5:00pm 20 22 mph 1019.2mb 83f
4:00pm 21 22 mph 1019.5mb 83f
3:00pm 20 21 mph 1020mb 83f
2:00pm 20 22 mph 1020.4mb 83f
1:00pm 18 21 mph 1021mb 82f
12:00pm 20 21 mph 1021.3mb 82f
11:00am 20
mph
1021.5mb 82f
10:00am 20
mph
1021.4mb 82f
9:00am 20 21 mph 1021.1mb 82f
8:00am 20 21 mph 1020.8mb 82f
7:00am 20 21 mph 1020.3mb 81f
6:00am 20 21 mph 1019.8mb 81f
5:00am 21 22 mph 1019.5mb 81f
4:00am 22 24 mph 1019.4mb 81f
3:00am 24 25 mph 1019.3mb 81f
2:00am 24 25 mph 1020mb 81f
1:00am 23 25 mph 1020.8mb 82f
12:00am 24 25 mph 1021.1mb 82f
Sat 05/23 11:00pm 26
mph
1020.7mb 82f
10:00pm 25 26 mph 1020.4mb 82f
9:00pm 22 24 mph 1020.5mb 82f
8:00pm 22 23 mph 1020.5mb 82f
7:00pm 21 22 mph 1020.1mb 83f
6:00pm 20 21 mph 1020.2mb 83f
5:00pm 20 21 mph 1020.2mb 83f
4:00pm 18 20 mph 1021.1mb 83f
3:00pm 17 18 mph 1021.7mb 83f
2:00pm 15 16 mph 1022.1mb 82f
1:00pm 15
mph
1022.5mb 83f
12:00pm 13 14 mph 1022.7mb 83f
11:00am 8 9 mph 1022.6mb 83f
10:00am 10 11 mph 1022.5mb 83f
9:00am 10 11 mph 1022.1mb 82f
8:00am 10
mph
1021.2mb 82f
7:00am 10 11 mph 1020.6mb 81f
6:00am 8 9 mph 1020.4mb 81f
5:00am 10 11 mph 1020.1mb 81f
4:00am 9 10 mph 1019.7mb 81f
3:00am 9 10 mph 1020mb 81f
2:00am 9 10 mph 1020.6mb 81f
1:00am 9 11 mph 1021mb 81f
12:00am 10
mph
1021.3mb 81f
Fri 05/22 11:00pm 10 11 mph 1021mb 81f
10:00pm 14 15 mph 1020.5mb 82f
9:00pm 13
mph
1020.2mb 83f
8:00pm 8 9 mph 1020.3mb 83f
7:00pm 3 5 mph 1019.9mb 83f
6:00pm 1 2 mph 1018.8mb 83f
5:00pm 5 6 mph 1018.6mb 85f
4:00pm 6 7 mph 1019.2mb 82f
3:00pm 8 9 mph 1020mb 82f
2:00pm 8 9 mph 1019.9mb 84f
1:00pm 5 6 mph 1020.1mb 83f
12:00pm 6 7 mph 1020mb 83f
11:00am 3
mph
1019.8mb 83f
10:00am 5
mph
1019.5mb 84f
9:00am 7 8 mph 1019mb 83f
8:00am  -  1 mph 1018.6mb 84f
7:00am  -  1 mph 1018.4mb 81f
6:00am 6 7 mph 1017.9mb 81f
5:00am 7
mph
1017.3mb 81f
4:00am 11 13 mph 1017.5mb 80f
3:00am 3
mph
1017.4mb 82f
2:00am 1
mph
1017.8mb 82f
1:00am 2
mph
1018.4mb 83f
12:00am 5 6 mph 1018.3mb 83f
Thu 05/21 11:00pm 8 9 mph 1017.5mb 82f
10:00pm 7 8 mph 1017.1mb 82f
9:00pm 6
mph
1016.8mb 82f
8:00pm 1 2 mph 1016.2mb 83f
7:00pm 3 5 mph 1016mb 83f
6:00pm 5 6 mph 1016mb 84f
5:00pm 3 5 mph 1015.6mb 83f
4:00pm 5 6 mph 1016mb 83f
3:00pm 2 3 mph 1016.4mb 83f
2:00pm 5 6 mph 1017mb 82f
1:00pm 5 6 mph 1017.6mb 82f
12:00pm 2 5 mph 1017.8mb 82f
11:00am 3 5 mph 1017.9mb 81f
10:00am 6 7 mph 1017.4mb 81f
9:00am 2 3 mph 1017.3mb 81f
8:00am  -  1 mph 1016.7mb 82f
7:00am 5
mph
1016.5mb 80f
6:00am 3 5 mph 1016.1mb 80f
5:00am 5 6 mph 1016mb 80f
4:00am 3 5 mph 1016mb 80f
3:00am 7
mph
1016mb 80f
2:00am 6 7 mph 1016.5mb 80f